Time;durP1;ratioP1;P1;durP2;ratioP2;P2;SDS_P1;SDS_P2;PMS_P1;PMS_P2;Temp;Humidity;BMP_temperature;BMP_pressure;BME280_temperature;BME280_humidity;BME280_pressure;Samples;Min_cycle;Max_cycle;Signal;HPM_P1;HPM_P2
2022/01/17 00:00:31;;;;;;;1999.90;999.90;;;2.30;99.90;;;;;;5002999;28;20053;-71
2022/01/17 00:03:00;;;;;;;1999.90;999.90;;;2.30;99.90;;;;;;5007680;28;20081;-71
2022/01/17 00:05:28;;;;;;;1999.90;999.90;;;2.30;99.90;;;;;;4990174;28;20089;-72
2022/01/17 00:07:55;;;;;;;1999.90;999.90;;;2.40;99.90;;;;;;5009331;28;20104;-72
2022/01/17 00:10:23;;;;;;;1999.90;999.90;;;2.30;99.90;;;;;;5007508;28;20558;-72
2022/01/17 00:12:54;;;;;;;1999.90;999.90;;;2.30;99.90;;;;;;5008498;28;20520;-71
2022/01/17 00:15:28;;;;;;;1999.90;999.90;;;2.30;99.90;;;;;;4990939;28;20752;-71
2022/01/17 00:18:20;;;;;;;1999.90;999.90;;;2.30;99.90;;;;;;4992165;28;20064;-71
2022/01/17 00:20:46;;;;;;;1999.90;999.90;;;2.30;99.90;;;;;;5009200;28;20078;-71
2022/01/17 00:23:14;;;;;;;1999.90;999.90;;;2.30;99.90;;;;;;5012451;28;20050;-71
2022/01/17 00:25:42;;;;;;;1999.90;999.90;;;2.20;99.90;;;;;;5011321;28;20054;-71
2022/01/17 00:28:11;;;;;;;1999.90;999.90;;;2.20;99.90;;;;;;4992741;28;20050;-71
2022/01/17 00:30:38;;;;;;;1999.90;999.90;;;2.20;99.90;;;;;;5011886;28;20054;-72
2022/01/17 00:33:05;;;;;;;1999.90;999.90;;;2.20;99.90;;;;;;5013325;28;20064;-71
2022/01/17 00:35:33;;;;;;;1999.90;999.90;;;2.20;99.90;;;;;;5012884;28;20056;-71
2022/01/17 00:38:00;;;;;;;1999.90;999.90;;;2.20;99.90;;;;;;4989249;28;20042;-71
2022/01/17 00:40:28;;;;;;;1999.90;999.90;;;2.20;99.90;;;;;;5011772;28;20108;-72
2022/01/17 00:42:55;;;;;;;1999.90;999.90;;;2.20;99.90;;;;;;5012139;28;20096;-72
2022/01/17 00:45:27;;;;;;;1999.90;999.90;;;2.20;99.90;;;;;;4995517;28;20042;-72
2022/01/17 00:47:56;;;;;;;1999.90;999.90;;;2.20;99.90;;;;;;5006274;28;20458;-71
2022/01/17 00:50:25;;;;;;;1999.90;999.90;;;2.20;99.90;;;;;;5012230;28;20069;-71
2022/01/17 00:52:52;;;;;;;1999.90;999.90;;;2.20;99.90;;;;;;5010976;28;20148;-71
2022/01/17 00:55:19;;;;;;;1999.90;999.90;;;2.10;99.90;;;;;;5011103;28;20054;-71
2022/01/17 00:57:47;;;;;;;1999.90;999.90;;;2.00;99.90;;;;;;5012178;28;20091;-71
2022/01/17 01:00:15;;;;;;;1999.90;999.90;;;2.10;99.90;;;;;;4994318;28;20137;-71
2022/01/17 01:02:46;;;;;;;1999.90;999.90;;;2.00;99.90;;;;;;5003555;28;20565;-71
2022/01/17 01:05:16;;;;;;;1999.90;999.90;;;2.00;99.90;;;;;;5001849;28;20058;-71
2022/01/17 01:07:44;;;;;;;1999.90;999.90;;;2.00;99.90;;;;;;5006960;28;20503;-71
2022/01/17 01:10:12;;;;;;;1999.90;999.90;;;2.10;99.90;;;;;;4992929;28;20531;-71
2022/01/17 01:12:46;;;;;;;1999.90;999.90;;;2.10;99.90;;;;;;4976111;28;20078;-71
2022/01/17 01:15:19;;;;;;;1999.90;999.90;;;2.10;99.90;;;;;;4988156;28;20041;-71
2022/01/17 01:17:51;;;;;;;1999.90;999.90;;;2.10;99.90;;;;;;5012652;28;20046;-71
2022/01/17 01:20:47;;;;;;;1999.90;999.90;;;2.10;99.90;;;;;;5010455;28;20517;-71
2022/01/17 01:28:47;;;;;;;1999.90;999.90;;;2.10;99.90;;;;;;4975087;28;20204;-74
2022/01/17 01:31:21;;;;;;;1999.90;999.90;;;2.10;99.90;;;;;;4974121;28;20054;-73
2022/01/17 01:33:54;;;;;;;1999.90;999.90;;;2.00;99.90;;;;;;5006284;28;20148;-73
2022/01/17 01:36:26;;;;;;;1999.90;999.90;;;2.00;99.90;;;;;;4993629;28;20064;-73
2022/01/17 01:38:54;;;;;;;1999.90;999.90;;;2.00;99.90;;;;;;4990979;28;20590;-73
2022/01/17 01:41:22;;;;;;;1999.90;999.90;;;2.00;99.90;;;;;;5010816;28;20054;-73
2022/01/17 01:43:49;;;;;;;1999.90;999.90;;;2.00;99.90;;;;;;5007567;28;20136;-74
2022/01/17 01:46:19;;;;;;;1999.90;999.90;;;2.00;99.90;;;;;;5001988;28;20056;-73
2022/01/17 01:48:49;;;;;;;1999.90;999.90;;;2.00;99.90;;;;;;5011594;28;20050;-73
2022/01/17 01:51:17;;;;;;;1999.90;999.90;;;2.00;99.90;;;;;;5008423;28;20070;-73
2022/01/17 01:53:44;;;;;;;1999.90;999.90;;;2.00;99.90;;;;;;4987097;28;20465;-74
2022/01/17 01:56:12;;;;;;;1999.90;999.90;;;1.90;99.90;;;;;;4990882;28;20141;-73
2022/01/17 01:58:41;;;;;;;1999.90;999.90;;;2.00;99.90;;;;;;5002625;28;20052;-73
2022/01/17 02:01:08;;;;;;;1999.90;999.90;;;2.00;99.90;;;;;;4988000;28;20486;-73
2022/01/17 02:03:36;;;;;;;1999.90;999.90;;;2.00;99.90;;;;;;5007695;28;20046;-73
2022/01/17 02:06:04;;;;;;;1999.90;999.90;;;2.00;99.90;;;;;;5007680;28;20062;-73
2022/01/17 02:08:32;;;;;;;1999.90;999.90;;;2.00;99.90;;;;;;4974396;28;20523;-73
2022/01/17 02:10:59;;;;;;;1999.90;999.90;;;2.00;99.90;;;;;;4996466;28;20054;-73
2022/01/17 02:13:27;;;;;;;1999.90;999.90;;;2.00;99.90;;;;;;4991669;28;20050;-73
2022/01/17 02:16:01;;;;;;;1999.90;999.90;;;2.00;99.90;;;;;;4994915;28;20058;-74
2022/01/17 02:18:31;;;;;;;1999.90;999.90;;;2.00;99.90;;;;;;5007299;28;20069;-73
2022/01/17 02:21:11;;;;;;;1999.90;999.90;;;2.00;99.90;;;;;;5009527;28;20478;-73
2022/01/17 02:23:39;;;;;;;1999.90;999.90;;;1.90;99.90;;;;;;4991717;28;20051;-73
2022/01/17 02:26:06;;;;;;;1999.90;999.90;;;2.00;99.90;;;;;;5007574;28;20090;-74
2022/01/17 02:28:35;;;;;;;1999.90;999.90;;;2.00;99.90;;;;;;5002448;28;20141;-73
2022/01/17 02:31:05;;;;;;;1999.90;999.90;;;2.00;99.90;;;;;;5009717;28;20100;-73
2022/01/17 02:33:32;;;;;;;1999.90;999.90;;;2.00;99.90;;;;;;5009603;28;20434;-73
2022/01/17 02:36:02;;;;;;;1999.90;999.90;;;1.90;99.90;;;;;;5009194;28;20128;-73
2022/01/17 02:38:31;;;;;;;1999.90;999.90;;;1.90;99.90;;;;;;5000723;28;20491;-73
2022/01/17 02:40:58;;;;;;;1999.90;999.90;;;1.90;99.90;;;;;;4965173;28;20119;-73
2022/01/17 02:43:26;;;;;;;1999.90;999.90;;;1.90;99.90;;;;;;4993504;28;20070;-74
2022/01/17 02:48:42;;;;;;;1999.90;999.90;;;1.80;99.90;;;;;;5004074;28;20046;-74
2022/01/17 02:51:11;;;;;;;1999.90;999.90;;;1.80;99.90;;;;;;4981965;28;20116;-75
2022/01/17 02:53:40;;;;;;;1999.90;999.90;;;1.70;99.90;;;;;;5005185;28;20474;-74
2022/01/17 02:56:09;;;;;;;1999.90;999.90;;;1.70;99.90;;;;;;4996156;28;20052;-74
2022/01/17 02:58:40;;;;;;;1999.90;999.90;;;1.70;99.90;;;;;;4990946;28;20058;-74
2022/01/17 03:01:11;;;;;;;1999.90;999.90;;;1.70;99.90;;;;;;4972034;28;20060;-74
2022/01/17 03:03:40;;;;;;;1999.90;999.90;;;1.70;99.90;;;;;;5003129;28;20077;-74
2022/01/17 03:06:13;;;;;;;1999.90;999.90;;;1.70;99.90;;;;;;4991276;28;20049;-74
2022/01/17 03:08:42;;;;;;;1999.90;999.90;;;1.70;99.90;;;;;;4993485;28;20386;-73
2022/01/17 03:11:12;;;;;;;1999.90;999.90;;;1.80;99.90;;;;;;4999284;28;20043;-73
2022/01/17 03:13:42;;;;;;;1999.90;999.90;;;1.80;99.90;;;;;;5001499;28;20485;-73
2022/01/17 03:16:14;;;;;;;1999.90;999.90;;;1.80;99.90;;;;;;5009423;28;20132;-73
2022/01/17 03:18:44;;;;;;;1999.90;999.90;;;1.80;99.90;;;;;;5009977;28;20054;-73
2022/01/17 03:21:15;;;;;;;1999.90;999.90;;;1.80;99.90;;;;;;5009848;28;20897;-73
2022/01/17 03:23:44;;;;;;;1999.90;999.90;;;1.70;99.90;;;;;;5007714;28;20054;-73
2022/01/17 03:26:12;;;;;;;1999.90;999.90;;;1.70;99.90;;;;;;4973895;28;20037;-73
2022/01/17 03:28:40;;;;;;;1999.90;999.90;;;1.60;99.90;;;;;;4989323;28;20504;-73
2022/01/17 03:31:10;;;;;;;1999.90;999.90;;;1.50;99.90;;;;;;4994460;28;20089;-73
2022/01/17 03:33:38;;;;;;;1999.90;999.90;;;1.60;99.90;;;;;;4997059;28;20051;-73
2022/01/17 03:36:06;;;;;;;1999.90;999.90;;;1.60;99.90;;;;;;4967781;28;20153;-74
2022/01/17 03:38:36;;;;;;;1999.90;999.90;;;1.60;99.90;;;;;;4992607;28;20053;-74
2022/01/17 03:41:05;;;;;;;1999.90;999.90;;;1.60;99.90;;;;;;5008758;28;20089;-74
2022/01/17 03:43:33;;;;;;;1999.90;999.90;;;1.70;99.90;;;;;;5006733;28;20416;-73
2022/01/17 03:46:00;;;;;;;1999.90;999.90;;;1.80;99.90;;;;;;4990572;28;20058;-73
2022/01/17 03:48:30;;;;;;;1999.90;999.90;;;1.80;99.90;;;;;;4971487;28;20511;-73
2022/01/17 03:50:59;;;;;;;1999.90;999.90;;;1.90;99.90;;;;;;4990062;28;20120;-73
2022/01/17 03:53:30;;;;;;;1999.90;999.90;;;2.00;99.90;;;;;;4992948;28;20045;-72
2022/01/17 03:56:00;;;;;;;1999.90;999.90;;;2.00;99.90;;;;;;5011930;28;20145;-73
2022/01/17 03:58:27;;;;;;;1999.90;999.90;;;2.00;99.90;;;;;;4990173;28;20045;-73
2022/01/17 04:00:57;;;;;;;1999.90;999.90;;;1.90;99.90;;;;;;5010159;28;20062;-73
2022/01/17 04:03:26;;;;;;;1999.90;999.90;;;1.90;99.90;;;;;;5001868;28;20073;-74
2022/01/17 04:05:54;;;;;;;1999.90;999.90;;;1.90;99.90;;;;;;4991116;28;20146;-74
2022/01/17 04:08:22;;;;;;;1999.90;999.90;;;1.90;99.90;;;;;;5003048;28;20581;-75
2022/01/17 04:10:49;;;;;;;1999.90;999.90;;;1.90;99.90;;;;;;5002977;28;20077;-78
2022/01/17 04:13:18;;;;;;;1999.90;999.90;;;1.90;99.90;;;;;;5007801;28;20050;-77
2022/01/17 04:15:46;;;;;;;1999.90;999.90;;;1.90;99.90;;;;;;5009832;28;20105;-77
2022/01/17 04:18:14;;;;;;;1999.90;999.90;;;2.00;99.90;;;;;;4996289;28;20107;-78
2022/01/17 04:20:42;;;;;;;1999.90;999.90;;;2.10;99.90;;;;;;5006595;28;20057;-79
2022/01/17 04:23:12;;;;;;;1999.90;999.90;;;2.10;99.90;;;;;;4994515;28;20514;-77
2022/01/17 04:25:43;;;;;;;1999.90;999.90;;;2.10;99.90;;;;;;4987826;28;20117;-75
2022/01/17 04:28:14;;;;;;;1999.90;999.90;;;2.20;99.90;;;;;;4999649;28;20069;-75
2022/01/17 04:30:44;;;;;;;1999.90;999.90;;;2.30;99.90;;;;;;5012411;28;20058;-75
2022/01/17 04:33:12;;;;;;;1999.90;999.90;;;2.30;99.90;;;;;;4995679;28;20056;-76
2022/01/17 04:35:41;;;;;;;1999.90;999.90;;;2.30;99.90;;;;;;5012972;28;20101;-75
2022/01/17 04:38:12;;;;;;;1999.90;999.90;;;2.30;99.90;;;;;;5012201;28;20104;-75
2022/01/17 04:40:41;;;;;;;1999.90;999.90;;;2.30;99.90;;;;;;5013150;28;20494;-75
2022/01/17 04:43:17;;;;;;;1999.90;999.90;;;2.30;99.90;;;;;;5009409;28;20050;-75
2022/01/17 04:45:51;;;;;;;1999.90;999.90;;;2.30;99.90;;;;;;4996001;28;20115;-75
2022/01/17 04:48:19;;;;;;;1999.90;999.90;;;2.20;99.90;;;;;;5002254;28;20470;-76
2022/01/17 04:50:49;;;;;;;1999.90;999.90;;;2.20;99.90;;;;;;4995671;28;20046;-76
2022/01/17 04:53:19;;;;;;;1999.90;999.90;;;2.20;99.90;;;;;;5004850;28;20046;-76
2022/01/17 04:55:50;;;;;;;1999.90;999.90;;;2.20;99.90;;;;;;4993974;28;20046;-76
2022/01/17 04:58:19;;;;;;;1999.90;999.90;;;2.20;99.90;;;;;;5013116;28;20132;-74
2022/01/17 05:00:48;;;;;;;1999.90;999.90;;;2.20;99.90;;;;;;5012452;28;20046;-79
2022/01/17 05:03:17;;;;;;;1999.90;999.90;;;2.20;99.90;;;;;;5005383;28;20080;-79
2022/01/17 05:05:45;;;;;;;1999.90;999.90;;;2.20;99.90;;;;;;5007618;28;20046;-77
2022/01/17 05:08:13;;;;;;;1999.90;999.90;;;2.10;99.90;;;;;;4991533;28;20070;-78
2022/01/17 05:10:42;;;;;;;1999.90;999.90;;;2.10;99.90;;;;;;5010342;28;20096;-77
2022/01/17 05:13:10;;;;;;;1999.90;999.90;;;2.00;99.90;;;;;;4999229;28;20061;-79
2022/01/17 05:15:46;;;;;;;1999.90;999.90;;;2.10;99.90;;;;;;5004131;28;20069;-79
2022/01/17 05:19:47;;;;;;;1999.90;999.90;;;2.00;99.90;;;;;;5000984;28;20112;-78
2022/01/17 05:21:13;;;;;;;1999.90;999.90;;;2.00;99.90;;;;;;5006079;28;20054;-78
2022/01/17 05:23:40;;;;;;;1999.90;999.90;;;1.90;99.90;;;;;;5008005;28;20045;-77
2022/01/17 05:26:08;;;;;;;1999.90;999.90;;;1.90;99.90;;;;;;5009553;28;20057;-77
2022/01/17 05:28:35;;;;;;;1999.90;999.90;;;1.80;99.90;;;;;;5008710;28;20046;-77
2022/01/17 05:31:02;;;;;;;1999.90;999.90;;;1.70;99.90;;;;;;5008484;28;20410;-76
2022/01/17 05:33:31;;;;;;;1999.90;999.90;;;1.70;99.90;;;;;;4974520;28;20056;-76
2022/01/17 05:35:59;;;;;;;1999.90;999.90;;;1.60;99.90;;;;;;5000963;28;20049;-76
2022/01/17 05:38:26;;;;;;;1999.90;999.90;;;1.50;99.90;;;;;;5006494;28;20117;-76
2022/01/17 05:40:53;;;;;;;1999.90;999.90;;;1.50;99.90;;;;;;4989924;28;20042;-76
2022/01/17 05:43:21;;;;;;;1999.90;999.90;;;1.40;99.90;;;;;;5007545;28;20523;-76
2022/01/17 05:45:48;;;;;;;1999.90;999.90;;;1.40;99.90;;;;;;5010124;28;20041;-77
2022/01/17 05:48:15;;;;;;;1999.90;999.90;;;1.40;99.90;;;;;;5008911;28;20042;-77
2022/01/17 05:50:44;;;;;;;1999.90;999.90;;;1.30;99.90;;;;;;4975683;28;20057;-76
2022/01/17 05:53:12;;;;;;;1999.90;999.90;;;1.30;99.90;;;;;;5009332;28;20046;-77
2022/01/17 05:55:40;;;;;;;1999.90;999.90;;;1.30;99.90;;;;;;5010807;28;21454;-76
2022/01/17 05:58:10;;;;;;;1999.90;999.90;;;1.30;99.90;;;;;;5010554;28;20053;-77
2022/01/17 06:00:38;;;;;;;1999.90;999.90;;;1.20;99.90;;;;;;5010222;28;20081;-76
2022/01/17 06:03:07;;;;;;;1999.90;999.90;;;1.20;99.90;;;;;;4995165;28;20057;-77
2022/01/17 06:05:35;;;;;;;1999.90;999.90;;;1.20;99.90;;;;;;4959022;28;20052;-77
2022/01/17 06:08:05;;;;;;;1999.90;999.90;;;1.20;99.90;;;;;;4991319;28;20081;-77
2022/01/17 06:10:33;;;;;;;1999.90;999.90;;;1.20;99.90;;;;;;4996546;28;20049;-78
2022/01/17 06:13:01;;;;;;;1999.90;999.90;;;1.20;99.90;;;;;;5010520;28;20065;-76
2022/01/17 06:15:37;;;;;;;1999.90;999.90;;;1.20;99.90;;;;;;5010248;28;20058;-77
2022/01/17 06:18:07;;;;;;;1999.90;999.90;;;1.30;99.90;;;;;;5025587;28;20057;-77
2022/01/17 06:20:34;;;;;;;1999.90;999.90;;;1.20;99.90;;;;;;5003750;28;20096;-77
2022/01/17 06:23:03;;;;;;;1999.90;999.90;;;1.20;99.90;;;;;;5003138;28;20066;-78
2022/01/17 06:25:31;;;;;;;1999.90;999.90;;;1.20;99.90;;;;;;5009304;28;20045;-79
2022/01/17 06:27:59;;;;;;;1999.90;999.90;;;1.20;99.90;;;;;;4998927;28;20054;-78
2022/01/17 06:30:34;;;;;;;1999.90;999.90;;;1.20;99.90;;;;;;4988775;28;20041;-79
2022/01/17 06:33:03;;;;;;;1999.90;999.90;;;1.10;99.90;;;;;;5003419;28;20506;-79
2022/01/17 06:35:31;;;;;;;1999.90;999.90;;;1.10;99.90;;;;;;5007884;28;20406;-79
2022/01/17 06:37:59;;;;;;;1999.90;999.90;;;1.10;99.90;;;;;;5001023;28;20048;-78
2022/01/17 06:40:28;;;;;;;1999.90;999.90;;;1.10;99.90;;;;;;5006457;28;20049;-79
2022/01/17 06:42:55;;;;;;;1999.90;999.90;;;1.20;99.90;;;;;;5008192;28;20088;-79
2022/01/17 06:45:23;;;;;;;1999.90;999.90;;;1.10;99.90;;;;;;4991412;28;20482;-79
2022/01/17 06:47:52;;;;;;;1999.90;999.90;;;1.10;99.90;;;;;;4989384;28;20129;-79
2022/01/17 06:50:19;;;;;;;1999.90;999.90;;;1.10;99.90;;;;;;5008585;28;20049;-79
2022/01/17 06:52:47;;;;;;;1999.90;999.90;;;1.10;99.90;;;;;;5007148;28;20792;-79
2022/01/17 06:55:14;;;;;;;1999.90;999.90;;;1.10;99.90;;;;;;4971448;28;20046;-78
2022/01/17 06:57:43;;;;;;;1999.90;999.90;;;1.00;99.90;;;;;;4999960;28;20069;-79
2022/01/17 07:00:13;;;;;;;1999.90;999.90;;;1.00;99.90;;;;;;4950542;28;20066;-80
2022/01/17 07:02:42;;;;;;;1999.90;999.90;;;1.00;99.90;;;;;;4986282;28;20064;-80
2022/01/17 07:05:10;;;;;;;1999.90;999.90;;;1.10;99.90;;;;;;4987270;28;20053;-79
2022/01/17 07:07:38;;;;;;;1999.90;999.90;;;1.20;99.90;;;;;;5007927;28;20483;-78
2022/01/17 07:10:06;;;;;;;1999.90;999.90;;;1.40;99.90;;;;;;4992659;28;20042;-78
2022/01/17 07:12:36;;;;;;;1999.90;999.90;;;1.50;99.90;;;;;;4991226;28;20371;-80
2022/01/17 07:15:07;;;;;;;1999.90;999.90;;;1.60;99.90;;;;;;5003036;28;20548;-76
2022/01/17 07:17:35;;;;;;;1999.90;999.90;;;1.70;99.90;;;;;;5009727;28;20412;-76
2022/01/17 07:20:05;;;;;;;1999.90;999.90;;;1.80;99.90;;;;;;5009807;28;20077;-77
2022/01/17 07:22:32;;;;;;;1999.90;999.90;;;1.80;99.90;;;;;;5010206;28;20077;-76
2022/01/17 07:25:00;;;;;;;1999.90;999.90;;;1.90;99.90;;;;;;5008465;28;20054;-76
2022/01/17 07:27:28;;;;;;;1999.90;999.90;;;1.90;99.90;;;;;;5010159;28;20049;-77
2022/01/17 07:29:55;;;;;;;1999.90;999.90;;;2.00;99.90;;;;;;5007602;28;20078;-76
2022/01/17 07:32:24;;;;;;;1999.90;999.90;;;2.00;99.90;;;;;;5006277;28;20058;-76
2022/01/17 07:34:52;;;;;;;1999.90;999.90;;;2.00;99.90;;;;;;5006752;28;20457;-76
2022/01/17 07:37:20;;;;;;;1999.90;999.90;;;2.00;99.90;;;;;;5007677;28;20049;-80
2022/01/17 07:39:47;;;;;;;1999.90;999.90;;;2.00;99.90;;;;;;5009982;28;20498;-77
2022/01/17 07:42:14;;;;;;;1999.90;999.90;;;2.00;99.90;;;;;;5010036;28;20053;-75
2022/01/17 07:44:43;;;;;;;1999.90;999.90;;;2.00;99.90;;;;;;4990177;28;20088;-77
2022/01/17 07:47:17;;;;;;;1999.90;999.90;;;2.00;99.90;;;;;;4992481;28;20054;-77
2022/01/17 07:49:46;;;;;;;1999.90;999.90;;;2.00;99.90;;;;;;5009785;28;20478;-78
2022/01/17 07:52:14;;;;;;;1999.90;999.90;;;2.10;99.90;;;;;;4999662;28;20046;-77
2022/01/17 07:54:43;;;;;;;1999.90;999.90;;;2.10;99.90;;;;;;5008151;28;20562;-77
2022/01/17 07:57:12;;;;;;;1999.90;999.90;;;2.20;99.90;;;;;;5001524;28;20050;-77
2022/01/17 07:59:39;;;;;;;1999.90;999.90;;;2.20;99.90;;;;;;5003143;28;20049;-76
2022/01/17 08:02:08;;;;;;;1999.90;999.90;;;2.30;99.90;;;;;;4986624;28;20515;-76
2022/01/17 08:04:35;;;;;;;1999.90;999.90;;;2.30;99.90;;;;;;5004576;28;20046;-76
2022/01/17 08:07:07;;;;;;;1999.90;999.90;;;2.20;99.90;;;;;;5004404;28;20133;-76
2022/01/17 08:09:35;;;;;;;1999.90;999.90;;;2.10;99.90;;;;;;4996964;28;20054;-76
2022/01/17 08:12:05;;;;;;;1999.90;999.90;;;2.10;99.90;;;;;;5001347;28;20040;-75
2022/01/17 08:14:33;;;;;;;1999.90;999.90;;;2.10;99.90;;;;;;4989681;28;21156;-75
2022/01/17 08:17:00;;;;;;;1999.90;999.90;;;2.10;99.90;;;;;;5004828;28;20041;-76
2022/01/17 08:19:29;;;;;;;1999.90;999.90;;;2.00;99.90;;;;;;4991087;28;20053;-78
2022/01/17 08:21:57;;;;;;;1999.90;999.90;;;2.00;99.90;;;;;;5000212;28;20511;-77
2022/01/17 08:24:26;;;;;;;1999.90;999.90;;;2.00;99.90;;;;;;4990428;28;20057;-79
2022/01/17 08:26:53;;;;;;;1999.90;999.90;;;2.10;99.90;;;;;;5008239;28;20061;-78
2022/01/17 08:29:25;;;;;;;1999.90;999.90;;;2.10;99.90;;;;;;4986313;28;20046;-79
2022/01/17 08:31:52;;;;;;;1999.90;999.90;;;2.10;99.90;;;;;;5005550;28;20054;-78
2022/01/17 08:34:20;;;;;;;1999.90;999.90;;;2.10;99.90;;;;;;5004565;28;20053;-80
2022/01/17 08:36:47;;;;;;;1999.90;999.90;;;2.20;99.90;;;;;;5008575;28;20053;-79
2022/01/17 08:39:16;;;;;;;1999.90;999.90;;;2.20;99.90;;;;;;5002490;28;20042;-80
2022/01/17 08:41:47;;;;;;;1999.90;999.90;;;2.20;99.90;;;;;;5004605;28;20049;-78
2022/01/17 08:44:15;;;;;;;1999.90;999.90;;;2.30;99.90;;;;;;5010579;28;20057;-79
2022/01/17 08:46:43;;;;;;;1999.90;999.90;;;2.40;99.90;;;;;;5011728;28;20053;-79
2022/01/17 08:49:11;;;;;;;1999.90;999.90;;;2.40;99.90;;;;;;5003767;28;20108;-79
2022/01/17 08:51:39;;;;;;;1999.90;999.90;;;2.50;99.90;;;;;;5006284;28;20046;-80
2022/01/17 08:54:07;;;;;;;1999.90;999.90;;;2.50;99.90;;;;;;5004668;28;20054;-78
2022/01/17 08:56:35;;;;;;;1999.90;999.90;;;2.50;99.90;;;;;;4999662;28;20060;-79
2022/01/17 08:59:04;;;;;;;1999.90;999.90;;;2.50;99.90;;;;;;5001535;28;20426;-79
2022/01/17 09:01:32;;;;;;;1999.90;999.90;;;2.60;99.90;;;;;;4990559;28;20591;-79
2022/01/17 09:03:59;;;;;;;1999.90;999.90;;;2.60;99.90;;;;;;5010709;28;20081;-77
2022/01/17 09:06:31;;;;;;;1999.90;999.90;;;2.60;99.90;;;;;;4989497;28;20401;-75
2022/01/17 09:09:09;;;;;;;1999.90;999.90;;;2.60;99.90;;;;;;5005173;28;20065;-75
2022/01/17 09:11:37;;;;;;;1999.90;999.90;;;2.70;99.90;;;;;;5008501;28;20050;-75
2022/01/17 09:14:08;;;;;;;1999.90;999.90;;;2.70;99.90;;;;;;5008996;28;20141;-77
2022/01/17 09:16:38;;;;;;;1999.90;999.90;;;2.70;99.90;;;;;;5010086;28;20141;-76
2022/01/17 09:19:08;;;;;;;1999.90;999.90;;;2.80;99.90;;;;;;5012156;28;20053;-76
2022/01/17 09:21:35;;;;;;;1999.90;999.90;;;2.70;99.90;;;;;;4993337;28;20526;-75
2022/01/17 09:24:04;;;;;;;1999.90;999.90;;;2.80;99.90;;;;;;5012289;28;20418;-74
2022/01/17 09:26:42;;;;;;;1999.90;999.90;;;2.80;99.90;;;;;;5009280;28;20062;-75
2022/01/17 09:29:11;;;;;;;1999.90;999.90;;;2.90;99.90;;;;;;5011596;28;20050;-74
2022/01/17 09:31:48;;;;;;;1999.90;999.90;;;2.80;99.90;;;;;;5023084;28;20100;-74
2022/01/17 09:34:16;;;;;;;1999.90;999.90;;;2.80;99.90;;;;;;4975988;28;20077;-76
2022/01/17 09:36:45;;;;;;;1999.90;999.90;;;2.80;99.90;;;;;;5013075;28;20137;-76
2022/01/17 09:39:14;;;;;;;1999.90;999.90;;;2.80;99.90;;;;;;5011112;28;20426;-75
2022/01/17 09:41:42;;;;;;;1999.90;999.90;;;2.80;99.90;;;;;;5012774;28;20057;-76
2022/01/17 09:44:10;;;;;;;1999.90;999.90;;;2.80;99.90;;;;;;5010705;28;20804;-76
2022/01/17 09:46:42;;;;;;;1999.90;999.90;;;2.80;99.90;;;;;;5012554;28;20085;-76
2022/01/17 09:49:21;;;;;;;1999.90;999.90;;;2.80;99.90;;;;;;5011258;28;20053;-77
2022/01/17 09:52:06;;;;;;;1999.90;999.90;;;2.80;99.90;;;;;;5000900;28;20084;-76
2022/01/17 09:54:37;;;;;;;1999.90;999.90;;;2.80;99.90;;;;;;5010990;28;20116;-77
2022/01/17 09:57:08;;;;;;;1999.90;999.90;;;2.80;99.90;;;;;;5012484;28;20046;-77
2022/01/17 09:59:40;;;;;;;1999.90;999.90;;;2.80;99.90;;;;;;5005336;28;20103;-76
2022/01/17 10:02:09;;;;;;;1999.90;999.90;;;2.80;99.90;;;;;;5006507;28;20084;-76
2022/01/17 10:04:37;;;;;;;1999.90;999.90;;;2.90;99.90;;;;;;5012004;28;20092;-79
2022/01/17 10:07:08;;;;;;;1999.90;999.90;;;2.90;99.90;;;;;;5023854;28;20511;-77
2022/01/17 10:09:39;;;;;;;1999.90;999.90;;;2.90;99.90;;;;;;4994312;28;20050;-77
2022/01/17 10:12:11;;;;;;;1999.90;999.90;;;2.90;99.90;;;;;;4994636;28;20045;-79
2022/01/17 10:14:43;;;;;;;1999.90;999.90;;;2.90;99.90;;;;;;5006033;28;20518;-78
2022/01/17 10:17:13;;;;;;;1999.90;999.90;;;2.90;99.90;;;;;;5005124;28;20045;-76
2022/01/17 10:19:42;;;;;;;1999.90;999.90;;;2.90;99.90;;;;;;4990570;28;20100;-77
2022/01/17 10:22:16;;;;;;;1999.90;999.90;;;2.90;99.90;;;;;;5002352;28;20112;-78
2022/01/17 10:24:57;;;;;;;1999.90;999.90;;;2.90;99.90;;;;;;4999193;28;20070;-78
2022/01/17 10:35:51;;;;;;;1999.90;999.90;;;2.90;99.90;;;;;;4969936;28;20902;-78
2022/01/17 10:38:23;;;;;;;1999.90;999.90;;;2.90;99.90;;;;;;5011124;28;20570;-78
2022/01/17 10:40:56;;;;;;;1999.90;999.90;;;2.80;99.90;;;;;;4998133;28;20411;-77
2022/01/17 10:43:27;;;;;;;1999.90;999.90;;;2.80;99.90;;;;;;5006172;28;20061;-76
2022/01/17 10:45:58;;;;;;;1999.90;999.90;;;2.80;99.90;;;;;;5022390;28;20148;-76
2022/01/17 10:48:34;;;;;;;1999.90;999.90;;;2.80;99.90;;;;;;5010593;28;20403;-77
2022/01/17 10:51:03;;;;;;;1999.90;999.90;;;2.80;99.90;;;;;;5005228;28;20145;-77
2022/01/17 10:53:31;;;;;;;1999.90;999.90;;;2.60;99.90;;;;;;5008228;28;20050;-78
2022/01/17 10:56:06;;;;;;;1999.90;999.90;;;2.50;99.90;;;;;;5006870;28;20532;-81
2022/01/17 10:58:35;;;;;;;1999.90;999.90;;;2.50;99.90;;;;;;5009149;28;20604;-81
2022/01/17 11:01:08;;;;;;;1999.90;999.90;;;2.50;99.90;;;;;;4988777;28;20155;-79
2022/01/17 11:03:37;;;;;;;1999.90;999.90;;;2.40;99.90;;;;;;4973611;28;20065;-79
2022/01/17 11:06:07;;;;;;;1999.90;999.90;;;2.40;99.90;;;;;;4974426;28;20108;-80
2022/01/17 11:08:35;;;;;;;1999.90;999.90;;;2.40;99.90;;;;;;4974319;28;20136;-79
2022/01/17 11:11:07;;;;;;;1999.90;999.90;;;2.30;99.90;;;;;;5009778;28;20440;-78
2022/01/17 11:13:38;;;;;;;1999.90;999.90;;;2.30;99.90;;;;;;5003367;28;20094;-79
2022/01/17 11:16:11;;;;;;;1999.90;999.90;;;2.20;99.90;;;;;;5006387;28;20041;-77
2022/01/17 11:18:41;;;;;;;1999.90;999.90;;;2.20;99.90;;;;;;5004270;28;20541;-74
2022/01/17 11:21:14;;;;;;;1999.90;999.90;;;2.00;99.90;;;;;;5008311;28;20497;-78
2022/01/17 11:23:47;;;;;;;1999.90;999.90;;;2.00;99.90;;;;;;5010067;28;20053;-76
2022/01/17 11:26:18;;;;;;;1999.90;999.90;;;2.00;99.90;;;;;;5010658;28;20140;-74
2022/01/17 11:28:49;;;;;;;1999.90;999.90;;;1.90;99.90;;;;;;5010482;28;20529;-75
2022/01/17 11:31:17;;;;;;;1999.90;999.90;;;1.80;99.90;;;;;;5008669;28;20050;-74
2022/01/17 11:33:47;;;;;;;1999.90;999.90;;;1.80;99.90;;;;;;5010707;28;20467;-74
2022/01/17 11:36:14;;;;;;;1999.90;999.90;;;1.70;99.90;;;;;;5009145;28;20084;-75
2022/01/17 11:38:50;;;;;;;1999.90;999.90;;;1.70;99.90;;;;;;4992602;28;20415;-73
2022/01/17 11:41:26;;;;;;;1999.90;999.90;;;1.60;99.90;;;;;;4991091;28;20108;-73
2022/01/17 11:43:58;;;;;;;1999.90;999.90;;;1.60;99.90;;;;;;5009647;28;20062;-77
2022/01/17 11:46:30;;;;;;;1999.90;999.90;;;1.60;99.90;;;;;;5009208;28;20401;-74
2022/01/17 11:49:02;;;;;;;1999.90;999.90;;;1.60;99.90;;;;;;4991321;28;20077;-75
2022/01/17 11:51:44;;;;;;;1999.90;999.90;;;1.60;99.90;;;;;;4993049;28;20080;-76
2022/01/17 11:54:14;;;;;;;1999.90;999.90;;;1.50;99.90;;;;;;4990923;28;20116;-75
2022/01/17 11:56:50;;;;;;;1999.90;999.90;;;1.40;99.90;;;;;;4973444;28;20061;-79
2022/01/17 11:59:46;;;;;;;1999.90;999.90;;;1.40;99.90;;;;;;4982797;28;20038;-77
2022/01/17 12:02:29;;;;;;;1999.90;999.90;;;1.30;99.90;;;;;;5008705;28;20152;-78
2022/01/17 12:05:35;;;;;;;1999.90;999.90;;;1.20;99.90;;;;;;5009946;28;20058;-76
2022/01/17 12:08:10;;;;;;;1999.90;999.90;;;1.80;99.90;;;;;;5008830;28;20525;-79
2022/01/17 12:10:51;;;;;;;1999.90;999.90;;;2.40;99.90;;;;;;4992639;28;20061;-76
2022/01/17 12:13:41;;;;;;;1999.90;999.90;;;2.40;99.90;;;;;;5010786;28;20050;-78
2022/01/17 12:16:36;;;;;;;1999.90;999.90;;;2.10;99.90;;;;;;5011480;28;20062;-78
2022/01/17 12:19:12;;;;;;;1999.90;999.90;;;1.70;99.90;;;;;;5008616;28;20053;-78
2022/01/17 12:21:44;;;;;;;1999.90;999.90;;;1.40;99.90;;;;;;5012327;28;20502;-79
2022/01/17 12:24:42;;;;;;;1999.90;999.90;;;1.20;99.90;;;;;;5013804;28;20344;-78
2022/01/17 12:27:20;;;;;;;1999.90;999.90;;;1.30;99.90;;;;;;4993468;28;20141;-78
2022/01/17 12:29:52;;;;;;;1999.90;999.90;;;1.10;99.90;;;;;;5009769;28;20058;-74
2022/01/17 12:32:49;;;;;;;1999.90;999.90;;;1.00;99.90;;;;;;4986362;28;20423;-75
2022/01/17 12:35:29;;;;;;;1999.90;999.90;;;0.80;99.90;;;;;;5011652;28;20082;-79
2022/01/17 12:38:07;;;;;;;1999.90;999.90;;;0.70;99.90;;;;;;5010674;28;20069;-78
2022/01/17 12:40:44;;;;;;;1999.90;999.90;;;0.50;99.90;;;;;;5013332;28;20061;-78